Time;durP1;ratioP1;P1;durP2;ratioP2;P2;SDS_P1;SDS_P2;PMS_P1;PMS_P2;Temp;Humidity;BMP_temperature;BMP_pressure;BME280_temperature;BME280_humidity;BME280_pressure;Samples;Min_cycle;Max_cycle;Signal;HPM_P1;HPM_P2
2023/12/24 00:00:03;;;;;;;;;;;;;;;4.25;67.41;96938.88;109677;1252;58941;-59
2023/12/24 00:02:30;;;;;;;;;;;;;;;4.26;67.16;96944.98;109418;1251;73490;-61
2023/12/24 00:04:58;;;;;;;;;;;;;;;4.09;67.71;96945.46;109636;1252;67902;-59
2023/12/24 00:07:25;;;;;;;;;;;;;;;4.32;67.40;96957.95;109647;1251;71504;-58
2023/12/24 00:09:53;;;;;;;;;;;;;;;4.45;66.92;96959.23;109605;1252;60953;-58
2023/12/24 00:12:20;;;;;;;;;;;;;;;4.34;66.81;96964.77;109580;1252;58883;-59
2023/12/24 00:14:47;;;;;;;;;;;;;;;4.34;66.50;96964.05;109547;1252;74858;-59
2023/12/24 00:17:15;;;;;;;;;;;;;;;4.33;66.23;96967.86;109313;1252;68668;-59
2023/12/24 00:19:42;;;;;;;;;;;;;;;4.47;65.50;96972.86;109574;1252;72753;-60
2023/12/24 00:22:11;;;;;;;;;;;;;;;4.46;65.92;96982.87;109602;1252;59700;-59
2023/12/24 00:24:38;;;;;;;;;;;;;;;4.42;65.91;96986.88;109564;1252;58953;-59
2023/12/24 00:27:06;;;;;;;;;;;;;;;4.51;65.49;96991.90;109599;1252;73486;-59
2023/12/24 00:29:34;;;;;;;;;;;;;;;4.55;65.36;96988.91;109594;1253;68555;-59
2023/12/24 00:32:02;;;;;;;;;;;;;;;4.52;65.23;96998.07;109586;1252;72672;-61
2023/12/24 00:34:29;;;;;;;;;;;;;;;4.54;65.39;97006.23;109308;1256;60960;-63
2023/12/24 00:36:57;;;;;;;;;;;;;;;4.55;65.46;97001.77;109588;1252;58957;-60
2023/12/24 00:39:24;;;;;;;;;;;;;;;4.58;65.58;97009.07;109608;1252;74741;-59
2023/12/24 00:41:52;;;;;;;;;;;;;;;4.57;65.83;97014.94;109585;1252;67341;-59
2023/12/24 00:44:19;;;;;;;;;;;;;;;4.36;67.07;97016.18;109542;1253;71521;-59
2023/12/24 00:46:47;;;;;;;;;;;;;;;4.55;66.61;97013.52;109592;1252;59669;-59
2023/12/24 00:49:14;;;;;;;;;;;;;;;4.76;65.84;97020.90;109661;1252;58938;-59
2023/12/24 00:51:42;;;;;;;;;;;;;;;4.76;65.71;97022.18;109641;1251;74703;-60
2023/12/24 00:54:10;;;;;;;;;;;;;;;4.61;66.06;97013.45;109463;1252;68834;-59
2023/12/24 00:56:37;;;;;;;;;;;;;;;4.66;66.33;97020.17;109602;1251;72712;-60
2023/12/24 00:59:05;;;;;;;;;;;;;;;4.64;66.31;97020.67;109624;1251;61091;-59
2023/12/24 01:01:33;;;;;;;;;;;;;;;4.53;66.32;97018.66;109655;1252;59054;-59
2023/12/24 01:04:00;;;;;;;;;;;;;;;4.41;67.33;97020.08;109310;1254;72981;-59
2023/12/24 01:06:28;;;;;;;;;;;;;;;4.39;67.62;97027.48;109403;1254;68547;-62
2023/12/24 01:08:56;;;;;;;;;;;;;;;4.57;66.66;97026.14;109041;1256;71458;-60
2023/12/24 01:11:23;;;;;;;;;;;;;;;4.66;65.82;97027.83;109018;1256;61046;-62
2023/12/24 01:13:50;;;;;;;;;;;;;;;4.54;66.12;97026.05;109242;1255;59874;-60
2023/12/24 01:16:18;;;;;;;;;;;;;;;4.58;66.04;97027.73;109224;1255;73723;-59
2023/12/24 01:18:47;;;;;;;;;;;;;;;4.77;65.12;97029.08;109196;1256;68532;-60
2023/12/24 01:21:15;;;;;;;;;;;;;;;4.54;65.68;97030.30;109210;1256;72171;-63
2023/12/24 01:23:42;;;;;;;;;;;;;;;4.45;65.91;97036.47;109207;1256;61042;-60
2023/12/24 01:26:10;;;;;;;;;;;;;;;4.37;66.54;97034.17;109190;1256;59961;-59
2023/12/24 01:28:38;;;;;;;;;;;;;;;4.35;66.66;97035.63;109114;1255;73500;-62
2023/12/24 01:31:05;;;;;;;;;;;;;;;4.48;66.14;97043.35;109062;1254;68966;-61
2023/12/24 01:33:33;;;;;;;;;;;;;;;4.49;65.97;97049.04;109261;1255;72707;-62
2023/12/24 01:36:00;;;;;;;;;;;;;;;4.48;65.77;97053.24;109471;1254;60938;-60
2023/12/24 01:38:28;;;;;;;;;;;;;;;4.50;65.62;97056.47;108879;1251;1002840;-60
2023/12/24 01:40:55;;;;;;;;;;;;;;;4.45;65.46;97056.55;109612;1253;73597;-63
2023/12/24 01:43:23;;;;;;;;;;;;;;;4.57;64.99;97061.42;109579;1252;68702;-63
2023/12/24 01:45:50;;;;;;;;;;;;;;;4.42;65.16;97062.89;109599;1253;71722;-60
2023/12/24 01:48:18;;;;;;;;;;;;;;;4.48;65.04;97069.12;109166;1254;60901;-59
2023/12/24 01:50:47;;;;;;;;;;;;;;;4.50;64.78;97069.80;109473;1252;59879;-59
2023/12/24 01:53:15;;;;;;;;;;;;;;;4.42;64.79;97069.10;109666;1252;74696;-61
2023/12/24 01:55:43;;;;;;;;;;;;;;;4.48;65.16;97076.45;109651;1251;68573;-61
2023/12/24 01:58:10;;;;;;;;;;;;;;;4.61;64.50;97077.60;109591;1253;72871;-62
2023/12/24 02:00:38;;;;;;;;;;;;;;;4.52;64.46;97082.45;109484;1252;60946;-59
2023/12/24 02:03:06;;;;;;;;;;;;;;;4.68;64.00;97086.91;109475;1253;59948;-63
2023/12/24 02:05:35;;;;;;;;;;;;;;;4.62;63.94;97085.73;109527;1252;73848;-59
2023/12/24 02:08:03;;;;;;;;;;;;;;;4.50;64.14;97083.14;109392;1252;68821;-59
2023/12/24 02:10:30;;;;;;;;;;;;;;;4.48;64.53;97082.94;109568;1253;71441;-59
2023/12/24 02:12:57;;;;;;;;;;;;;;;4.59;64.23;97085.96;109548;1253;60941;-59
2023/12/24 02:15:25;;;;;;;;;;;;;;;4.46;64.38;97089.90;109286;1253;59852;-59
2023/12/24 02:17:52;;;;;;;;;;;;;;;4.32;65.10;97086.37;109577;1253;74659;-59
2023/12/24 02:20:24;;;;;;;;;;;;;;;4.25;65.70;97088.52;109643;1252;67583;-59
2023/12/24 02:22:52;;;;;;;;;;;;;;;4.39;65.09;97085.64;109566;1253;72748;-60
2023/12/24 02:25:19;;;;;;;;;;;;;;;4.23;65.56;97086.30;109477;1253;60947;-59
2023/12/24 02:27:53;;;;;;;;;;;;;;;4.38;65.27;97085.70;109295;1253;58976;-61
2023/12/24 02:30:22;;;;;;;;;;;;;;;4.31;65.20;97089.08;109482;1254;74755;-59
2023/12/24 02:32:53;;;;;;;;;;;;;;;4.31;65.18;97088.55;109510;1252;68986;-59
2023/12/24 02:35:21;;;;;;;;;;;;;;;4.45;64.60;97094.70;109388;1253;70918;-59
2023/12/24 02:37:49;;;;;;;;;;;;;;;4.34;65.26;97101.33;109461;1253;61059;-59
2023/12/24 02:40:16;;;;;;;;;;;;;;;4.12;66.41;97105.52;109385;1253;59894;-60
2023/12/24 02:42:44;;;;;;;;;;;;;;;4.15;66.46;97106.52;109495;1252;74744;-59
2023/12/24 02:45:11;;;;;;;;;;;;;;;4.08;67.05;97116.79;109436;1253;67631;-60
2023/12/24 02:47:39;;;;;;;;;;;;;;;4.13;66.50;97120.75;109317;1253;72852;-62
2023/12/24 02:50:07;;;;;;;;;;;;;;;4.46;65.14;97128.00;109206;1261;59706;-60
2023/12/24 02:52:34;;;;;;;;;;;;;;;4.16;66.22;97124.46;109466;1253;59858;-59
2023/12/24 02:55:02;;;;;;;;;;;;;;;4.28;66.01;97134.77;109356;1253;74784;-59
2023/12/24 02:57:30;;;;;;;;;;;;;;;4.36;65.70;97140.05;109323;1253;68858;-61
2023/12/24 02:59:57;;;;;;;;;;;;;;;4.18;66.67;97140.06;109506;1253;72716;-62
2023/12/24 03:02:25;;;;;;;;;;;;;;;4.18;66.68;97142.35;109301;1253;61162;-61
2023/12/24 03:04:52;;;;;;;;;;;;;;;4.09;67.29;97143.48;109463;1253;59890;-60
2023/12/24 03:07:20;;;;;;;;;;;;;;;3.90;68.50;97141.69;109512;1253;73409;-62
2023/12/24 03:09:47;;;;;;;;;;;;;;;4.18;67.34;97142.20;109528;1253;67254;-62
2023/12/24 03:12:17;;;;;;;;;;;;;;;4.08;67.47;97146.15;109321;1253;71585;-61
2023/12/24 03:14:44;;;;;;;;;;;;;;;4.02;68.28;97147.80;109453;1253;59651;-61
2023/12/24 03:17:12;;;;;;;;;;;;;;;3.98;68.62;97150.00;109502;1253;58979;-59
2023/12/24 03:19:39;;;;;;;;;;;;;;;3.99;68.78;97150.52;109341;1253;74701;-60
2023/12/24 03:22:08;;;;;;;;;;;;;;;4.01;68.51;97159.81;109534;1252;68597;-59
2023/12/24 03:24:37;;;;;;;;;;;;;;;4.00;69.01;97164.23;109528;1254;72727;-60
2023/12/24 03:27:04;;;;;;;;;;;;;;;4.00;69.00;97163.81;109312;1253;60951;-62
2023/12/24 03:29:32;;;;;;;;;;;;;;;4.00;69.20;97164.85;109584;1252;58924;-59
2023/12/24 03:31:59;;;;;;;;;;;;;;;4.11;69.23;97169.13;109537;1252;74713;-59
2023/12/24 03:34:27;;;;;;;;;;;;;;;4.20;68.81;97178.19;109543;1252;68857;-59
2023/12/24 03:36:54;;;;;;;;;;;;;;;4.13;69.11;97177.30;109599;1253;71423;-58
2023/12/24 03:39:21;;;;;;;;;;;;;;;4.20;69.13;97183.92;109603;1253;60960;-61
2023/12/24 03:41:49;;;;;;;;;;;;;;;4.24;69.24;97183.96;109328;1253;58852;-61
2023/12/24 03:44:17;;;;;;;;;;;;;;;4.37;68.61;97185.45;109434;1252;74691;-59
2023/12/24 03:46:44;;;;;;;;;;;;;;;4.36;68.77;97180.10;109505;1253;67625;-59
2023/12/24 03:49:12;;;;;;;;;;;;;;;4.18;69.66;97182.86;109586;1252;72690;-59
2023/12/24 03:51:40;;;;;;;;;;;;;;;4.37;69.02;97184.83;109342;1254;60953;-61
2023/12/24 03:54:08;;;;;;;;;;;;;;;4.36;69.09;97193.27;109326;1252;59805;-60
2023/12/24 03:56:35;;;;;;;;;;;;;;;4.42;68.72;97196.55;109592;1253;73438;-61
2023/12/24 03:59:03;;;;;;;;;;;;;;;4.36;69.18;97194.19;109583;1253;68821;-61
2023/12/24 04:01:30;;;;;;;;;;;;;;;4.39;69.40;97194.79;109592;1253;72760;-62
2023/12/24 04:03:58;;;;;;;;;;;;;;;4.38;69.27;97195.65;109565;1256;60927;-59
2023/12/24 04:06:25;;;;;;;;;;;;;;;4.44;69.26;97202.34;109547;1253;58986;-60
2023/12/24 04:08:53;;;;;;;;;;;;;;;4.44;69.37;97207.33;109599;1253;73946;-59
2023/12/24 04:11:21;;;;;;;;;;;;;;;4.31;70.04;97203.22;109356;1253;67417;-59
2023/12/24 04:13:49;;;;;;;;;;;;;;;4.39;69.85;97207.33;109551;1252;70776;-59
2023/12/24 04:16:19;;;;;;;;;;;;;;;4.35;70.03;97210.38;109308;1254;58874;-59
2023/12/24 04:18:47;;;;;;;;;;;;;;;4.32;69.96;97213.21;109583;1252;58939;-58
2023/12/24 04:21:16;;;;;;;;;;;;;;;4.35;69.98;97214.89;109559;1252;73436;-59
2023/12/24 04:23:43;;;;;;;;;;;;;;;4.25;70.33;97213.86;109582;1254;67554;-58
2023/12/24 04:26:11;;;;;;;;;;;;;;;4.20;70.51;97215.98;109120;1253;71499;-59
2023/12/24 04:28:38;;;;;;;;;;;;;;;4.30;69.76;97219.20;109189;1253;60966;-58
2023/12/24 04:31:06;;;;;;;;;;;;;;;4.30;69.81;97220.96;109528;1253;59875;-58
2023/12/24 04:33:34;;;;;;;;;;;;;;;4.45;69.02;97223.16;109568;1253;72442;-60
2023/12/24 04:36:04;;;;;;;;;;;;;;;4.34;69.14;97223.73;109424;1254;68510;-61
2023/12/24 04:38:31;;;;;;;;;;;;;;;4.35;69.33;97223.66;109304;1253;72840;-59
2023/12/24 04:40:59;;;;;;;;;;;;;;;4.42;68.79;97224.91;109174;1257;60926;-59
2023/12/24 04:43:27;;;;;;;;;;;;;;;4.53;68.26;97224.45;107695;1260;1002318;-58
2023/12/24 04:45:54;;;;;;;;;;;;;;;4.42;69.23;97223.91;109136;1257;74808;-59
2023/12/24 04:48:22;;;;;;;;;;;;;;;4.47;70.32;97230.42;109030;1263;68872;-61
2023/12/24 04:50:50;;;;;;;;;;;;;;;4.37;69.42;97227.52;109019;1256;71464;-59
2023/12/24 04:53:18;;;;;;;;;;;;;;;4.35;69.33;97229.06;109091;1256;61097;-59
2023/12/24 04:55:48;;;;;;;;;;;;;;;4.37;69.16;97224.18;108981;1257;58972;-59
2023/12/24 04:58:16;;;;;;;;;;;;;;;4.44;69.36;97230.64;108972;1258;74759;-62
2023/12/24 05:00:43;;;;;;;;;;;;;;;4.52;68.70;97233.42;108957;1259;68917;-58
2023/12/24 05:03:11;;;;;;;;;;;;;;;4.26;70.06;97237.29;109012;1257;71821;-60
2023/12/24 05:05:38;;;;;;;;;;;;;;;4.32;70.27;97239.23;109015;1259;60996;-66
2023/12/24 05:08:06;;;;;;;;;;;;;;;4.28;71.12;97240.93;108976;1257;59039;-61
2023/12/24 05:10:33;;;;;;;;;;;;;;;4.07;72.83;97238.33;109006;1259;75195;-59
2023/12/24 05:13:01;;;;;;;;;;;;;;;4.19;73.02;97244.26;109151;1256;67595;-62
2023/12/24 05:15:28;;;;;;;;;;;;;;;4.18;73.24;97243.41;109197;1256;71459;-59
2023/12/24 05:17:56;;;;;;;;;;;;;;;3.98;74.95;97244.98;109205;1260;61012;-60
2023/12/24 05:20:24;;;;;;;;;;;;;;;4.27;73.84;97246.46;109184;1257;59032;-59
2023/12/24 05:22:51;;;;;;;;;;;;;;;4.22;74.40;97249.14;109230;1257;74778;-60
2023/12/24 05:25:20;;;;;;;;;;;;;;;4.22;75.88;97254.06;109165;1255;74019;-59
2023/12/24 05:27:48;;;;;;;;;;;;;;;4.09;76.18;97255.63;109344;1254;73247;-59
2023/12/24 05:30:15;;;;;;;;;;;;;;;4.18;75.47;97258.75;109341;1254;59332;-60
2023/12/24 05:32:43;;;;;;;;;;;;;;;4.02;76.29;97262.60;109339;1254;58917;-59
2023/12/24 05:35:11;;;;;;;;;;;;;;;4.08;76.39;97263.02;109286;1254;74716;-60
2023/12/24 05:37:38;;;;;;;;;;;;;;;4.39;75.15;97270.34;109334;1254;68550;-60
2023/12/24 05:40:06;;;;;;;;;;;;;;;4.40;74.96;97273.52;109449;1254;72725;-60
2023/12/24 05:42:34;;;;;;;;;;;;;;;4.37;75.05;97277.41;109323;1254;59658;-60
2023/12/24 05:45:01;;;;;;;;;;;;;;;4.16;75.60;97274.90;109232;1254;59885;-60
2023/12/24 05:47:28;;;;;;;;;;;;;;;4.11;76.03;97273.69;109367;1254;73471;-59
2023/12/24 05:49:56;;;;;;;;;;;;;;;4.09;76.28;97273.26;109398;1254;67698;-59
2023/12/24 05:52:23;;;;;;;;;;;;;;;4.13;76.27;97278.29;109329;1254;70475;-59
2023/12/24 05:54:54;;;;;;;;;;;;;;;4.15;75.94;97283.45;109316;1257;59639;-59
2023/12/24 05:57:22;;;;;;;;;;;;;;;4.12;75.50;97290.52;109476;1254;59946;-59
2023/12/24 05:59:49;;;;;;;;;;;;;;;4.20;74.83;97299.42;109372;1254;74903;-59
2023/12/24 06:02:20;;;;;;;;;;;;;;;4.03;75.50;97296.67;109338;1254;68556;-59
2023/12/24 06:04:47;;;;;;;;;;;;;;;4.03;75.47;97298.43;109342;1254;71467;-59
2023/12/24 06:07:15;;;;;;;;;;;;;;;4.07;75.84;97302.40;109115;1257;61001;-59
2023/12/24 06:09:42;;;;;;;;;;;;;;;4.05;75.61;97298.37;109495;1253;59022;-59
2023/12/24 06:12:09;;;;;;;;;;;;;;;3.90;76.10;97303.95;109563;1253;74739;-59
2023/12/24 06:14:39;;;;;;;;;;;;;;;4.02;75.28;97302.63;109528;1253;67552;-63
2023/12/24 06:17:07;;;;;;;;;;;;;;;3.90;75.12;97302.52;109494;1253;72711;-60
2023/12/24 06:19:35;;;;;;;;;;;;;;;3.84;75.12;97308.20;109524;1254;59905;-61
2023/12/24 06:22:02;;;;;;;;;;;;;;;3.92;74.57;97315.20;109304;1254;59033;-60
2023/12/24 06:24:30;;;;;;;;;;;;;;;4.07;73.64;97315.00;109233;1252;73440;-59
2023/12/24 06:26:58;;;;;;;;;;;;;;;3.94;73.62;97315.53;109546;1253;68555;-59
2023/12/24 06:29:25;;;;;;;;;;;;;;;3.89;73.39;97318.39;109514;1253;71363;-59
2023/12/24 06:31:56;;;;;;;;;;;;;;;3.88;73.05;97317.90;109125;1254;60113;-59
2023/12/24 06:34:23;;;;;;;;;;;;;;;3.98;72.31;97322.05;109545;1252;59068;-59
2023/12/24 06:36:51;;;;;;;;;;;;;;;4.11;71.59;97319.07;109227;1254;74734;-62
2023/12/24 06:39:18;;;;;;;;;;;;;;;3.98;72.34;97322.48;109197;1253;67269;-61
2023/12/24 06:41:47;;;;;;;;;;;;;;;4.06;72.11;97326.63;109503;1254;72751;-59
2023/12/24 06:44:14;;;;;;;;;;;;;;;3.99;71.17;97333.63;109511;1253;60299;-59
2023/12/24 06:46:42;;;;;;;;;;;;;;;4.21;69.47;97339.99;109533;1253;58966;-59
2023/12/24 06:49:09;;;;;;;;;;;;;;;4.13;68.99;97337.66;109230;1254;75172;-60
2023/12/24 06:51:37;;;;;;;;;;;;;;;4.11;68.99;97340.33;109150;1253;68532;-60
2023/12/24 06:54:04;;;;;;;;;;;;;;;4.26;68.15;97342.70;109523;1254;72755;-59
2023/12/24 06:56:32;;;;;;;;;;;;;;;4.08;67.79;97338.61;109096;1259;61043;-62
2023/12/24 06:58:59;;;;;;;;;;;;;;;4.04;67.90;97348.02;109561;1254;58975;-59
2023/12/24 07:01:27;;;;;;;;;;;;;;;4.10;67.23;97342.61;109469;1253;74772;-59
2023/12/24 07:03:54;;;;;;;;;;;;;;;4.11;66.71;97344.77;109526;1253;67772;-59
2023/12/24 07:06:22;;;;;;;;;;;;;;;4.17;66.33;97351.90;109544;1254;72785;-59
2023/12/24 07:08:51;;;;;;;;;;;;;;;4.19;65.64;97352.65;109471;1254;62733;-60
2023/12/24 07:11:19;;;;;;;;;;;;;;;4.09;66.04;97359.06;109149;1254;58964;-59
2023/12/24 07:13:46;;;;;;;;;;;;;;;4.31;64.59;97364.27;109566;1252;74696;-60
2023/12/24 07:16:14;;;;;;;;;;;;;;;4.39;63.57;97363.61;109506;1253;67278;-59
2023/12/24 07:18:41;;;;;;;;;;;;;;;4.42;63.49;97369.78;109403;1254;72800;-58
2023/12/24 07:21:09;;;;;;;;;;;;;;;4.45;63.02;97374.25;109435;1253;60942;-62
2023/12/24 07:23:37;;;;;;;;;;;;;;;4.09;63.79;97370.05;109624;1252;60042;-58
2023/12/24 07:26:05;;;;;;;;;;;;;;;4.31;63.02;97377.17;109561;1252;73416;-59
2023/12/24 07:28:33;;;;;;;;;;;;;;;4.43;62.37;97381.10;109112;1253;67660;-59
2023/12/24 07:31:00;;;;;;;;;;;;;;;4.35;62.49;97384.34;109333;1253;71471;-58
2023/12/24 07:33:27;;;;;;;;;;;;;;;4.53;60.71;97387.31;109540;1253;61115;-59
2023/12/24 07:35:55;;;;;;;;;;;;;;;4.46;60.89;97392.67;109575;1252;58984;-60
2023/12/24 07:38:23;;;;;;;;;;;;;;;4.40;60.95;97397.30;109599;1254;74756;-60
2023/12/24 07:40:50;;;;;;;;;;;;;;;4.54;60.76;97404.52;109430;1253;68830;-60
2023/12/24 07:43:18;;;;;;;;;;;;;;;4.43;60.82;97407.29;109576;1254;71477;-60
2023/12/24 07:45:45;;;;;;;;;;;;;;;4.41;60.07;97414.94;109579;1253;59634;-59
2023/12/24 07:48:13;;;;;;;;;;;;;;;4.33;60.15;97416.42;109448;1253;58913;-59
2023/12/24 07:50:40;;;;;;;;;;;;;;;4.17;60.84;97416.47;109189;1253;73440;-59
2023/12/24 07:53:08;;;;;;;;;;;;;;;4.31;61.01;97421.31;109453;1254;67260;-59
2023/12/24 07:55:35;;;;;;;;;;;;;;;4.34;60.33;97422.21;109480;1253;71466;-62
2023/12/24 07:58:03;;;;;;;;;;;;;;;4.35;60.09;97424.39;109448;1253;59653;-59
2023/12/24 08:00:30;;;;;;;;;;;;;;;4.37;59.84;97424.88;109453;1252;58930;-59
2023/12/24 08:02:57;;;;;;;;;;;;;;;4.31;60.48;97429.43;109492;1252;74722;-59
2023/12/24 08:05:25;;;;;;;;;;;;;;;4.54;59.60;97430.40;109145;1253;68879;-60
2023/12/24 08:07:53;;;;;;;;;;;;;;;4.48;59.60;97428.70;109124;1253;72731;-59
2023/12/24 08:10:20;;;;;;;;;;;;;;;4.29;60.32;97426.09;109583;1253;59972;-59
2023/12/24 08:12:47;;;;;;;;;;;;;;;4.45;60.49;97433.06;109594;1253;59874;-59
2023/12/24 08:15:21;;;;;;;;;;;;;;;4.72;59.20;97436.13;109551;1253;73463;-60
2023/12/24 08:17:49;;;;;;;;;;;;;;;4.77;58.84;97437.50;109475;1253;67670;-63
2023/12/24 08:20:21;;;;;;;;;;;;;;;5.11;56.75;97445.63;109425;1253;72733;-59
2023/12/24 08:22:48;;;;;;;;;;;;;;;5.29;55.68;97444.97;109578;1254;60915;-63
2023/12/24 08:25:16;;;;;;;;;;;;;;;5.47;54.45;97448.67;109588;1254;59846;-63
2023/12/24 08:27:43;;;;;;;;;;;;;;;5.50;53.63;97441.48;109578;1252;73493;-63
2023/12/24 08:30:11;;;;;;;;;;;;;;;5.73;52.64;97453.46;109366;1256;69034;-63
2023/12/24 08:32:39;;;;;;;;;;;;;;;5.79;51.92;97457.64;109461;1253;73060;-60
2023/12/24 08:35:06;;;;;;;;;;;;;;;5.78;52.19;97462.55;109570;1253;60901;-61
2023/12/24 08:37:35;;;;;;;;;;;;;;;5.56;51.45;97468.02;109606;1253;59886;-61
2023/12/24 08:40:03;;;;;;;;;;;;;;;5.59;51.92;97473.32;109603;1253;74691;-64
2023/12/24 08:42:30;;;;;;;;;;;;;;;5.44;51.84;97469.59;109614;1253;68815;-62
2023/12/24 08:44:58;;;;;;;;;;;;;;;5.61;51.42;97471.62;109576;1253;72693;-60
2023/12/24 08:47:25;;;;;;;;;;;;;;;5.51;51.60;97470.91;109553;1253;63209;-59
2023/12/24 08:49:53;;;;;;;;;;;;;;;5.23;52.47;97475.29;109438;1254;58928;-59
2023/12/24 08:52:21;;;;;;;;;;;;;;;5.05;53.22;97474.15;109506;1253;72926;-59
2023/12/24 08:54:48;;;;;;;;;;;;;;;5.03;53.49;97481.49;109450;1253;68860;-60
2023/12/24 08:57:16;;;;;;;;;;;;;;;5.82;50.93;97487.35;109166;1252;71482;-60
2023/12/24 08:59:43;;;;;;;;;;;;;;;5.75;50.89;97494.98;109444;1254;60960;-60
2023/12/24 09:02:11;;;;;;;;;;;;;;;5.51;52.07;97497.52;109135;1253;59468;-60
2023/12/24 09:04:39;;;;;;;;;;;;;;;5.32;52.41;97496.77;109498;1253;73625;-63
2023/12/24 09:07:06;;;;;;;;;;;;;;;5.28;52.70;97494.92;109473;1253;68520;-61
2023/12/24 09:09:33;;;;;;;;;;;;;;;5.13;53.23;97498.28;109514;1252;72747;-59
2023/12/24 09:12:01;;;;;;;;;;;;;;;5.05;54.12;97497.13;109518;1252;59684;-60
2023/12/24 09:14:28;;;;;;;;;;;;;;;4.81;55.23;97498.73;109605;1252;60025;-60
2023/12/24 09:16:56;;;;;;;;;;;;;;;4.86;55.15;97496.29;109579;1253;72818;-62
2023/12/24 09:19:23;;;;;;;;;;;;;;;4.93;54.95;97492.83;109590;1253;68814;-60
2023/12/24 09:21:51;;;;;;;;;;;;;;;5.15;54.35;97503.17;109594;1252;71709;-61
2023/12/24 09:24:18;;;;;;;;;;;;;;;5.17;54.17;97498.70;109568;1252;61300;-60
2023/12/24 09:26:46;;;;;;;;;;;;;;;4.97;54.63;97496.23;109568;1253;59951;-60
2023/12/24 09:29:13;;;;;;;;;;;;;;;4.98;54.78;97498.63;109592;1252;73742;-59
2023/12/24 09:31:41;;;;;;;;;;;;;;;4.98;55.04;97498.20;109543;1253;68843;-59
2023/12/24 09:34:08;;;;;;;;;;;;;;;5.01;54.68;97500.75;109580;1252;72730;-59
2023/12/24 09:36:36;;;;;;;;;;;;;;;4.85;55.72;97500.60;109589;1253;59664;-60
2023/12/24 09:39:04;;;;;;;;;;;;;;;5.06;54.81;97504.41;109586;1253;59847;-59
2023/12/24 09:41:32;;;;;;;;;;;;;;;4.99;55.08;97496.60;109573;1253;74632;-59
2023/12/24 09:44:00;;;;;;;;;;;;;;;5.14;55.26;97504.99;109590;1253;67750;-59
2023/12/24 09:46:28;;;;;;;;;;;;;;;5.14;55.72;97509.68;109159;1254;72750;-59
2023/12/24 09:48:55;;;;;;;;;;;;;;;5.13;56.24;97507.23;109456;1253;60177;-60
2023/12/24 09:51:25;;;;;;;;;;;;;;;4.82;56.59;97504.32;109398;1253;58967;-60
2023/12/24 09:53:53;;;;;;;;;;;;;;;4.85;57.19;97507.30;107980;1253;1003035;-59
2023/12/24 09:56:21;;;;;;;;;;;;;;;4.89;56.91;97505.45;109472;1253;68837;-58
2023/12/24 09:58:48;;;;;;;;;;;;;;;4.55;57.46;97509.58;109386;1253;72747;-59
2023/12/24 10:01:16;;;;;;;;;;;;;;;4.60;57.47;97509.20;109466;1254;59719;-59
2023/12/24 10:03:43;;;;;;;;;;;;;;;4.70;57.76;97509.11;109410;1253;59863;-59
2023/12/24 10:06:11;;;;;;;;;;;;;;;4.84;57.14;97520.44;109441;1253;73466;-59
2023/12/24 10:08:38;;;;;;;;;;;;;;;4.64;58.06;97521.38;109422;1253;68860;-59
2023/12/24 10:11:12;;;;;;;;;;;;;;;4.88;57.39;97520.80;109593;1253;72606;-59
2023/12/24 10:13:41;;;;;;;;;;;;;;;5.14;56.83;97524.83;109453;1253;60969;-62
2023/12/24 10:16:09;;;;;;;;;;;;;;;5.26;56.41;97527.48;109601;1253;59848;-59
2023/12/24 10:18:50;;;;;;;;;;;;;;;5.08;56.62;97524.09;109571;1253;74694;-60
2023/12/24 10:21:21;;;;;;;;;;;;;;;4.97;57.14;97520.85;109580;1253;66664;-61
2023/12/24 10:23:48;;;;;;;;;;;;;;;4.65;58.24;97522.65;109571;1252;71479;-62
2023/12/24 10:26:16;;;;;;;;;;;;;;;4.55;59.16;97527.80;109589;1253;60912;-58
2023/12/24 10:28:48;;;;;;;;;;;;;;;4.78;58.82;97533.45;109519;1253;58878;-58
2023/12/24 10:31:24;;;;;;;;;;;;;;;4.73;58.99;97538.50;109590;1253;74714;-59
2023/12/24 10:33:57;;;;;;;;;;;;;;;4.73;59.24;97537.07;109578;1253;67666;-59
2023/12/24 10:36:24;;;;;;;;;;;;;;;4.65;59.78;97540.36;109514;1252;72740;-60
2023/12/24 10:38:52;;;;;;;;;;;;;;;4.81;59.64;97551.04;109184;1254;60922;-60
2023/12/24 10:41:19;;;;;;;;;;;;;;;4.70;60.01;97550.35;109314;1253;58900;-58
2023/12/24 10:43:46;;;;;;;;;;;;;;;4.68;60.17;97550.14;109671;1253;74704;-59
2023/12/24 10:46:14;;;;;;;;;;;;;;;4.78;60.16;97556.95;109569;1253;66504;-60
2023/12/24 10:48:41;;;;;;;;;;;;;;;5.00;59.70;97559.63;109494;1253;72743;-59
2023/12/24 10:51:09;;;;;;;;;;;;;;;4.97;59.87;97561.20;109400;1254;60910;-59
2023/12/24 10:53:42;;;;;;;;;;;;;;;4.83;60.13;97561.58;109458;1253;59854;-60
2023/12/24 10:56:12;;;;;;;;;;;;;;;4.94;59.76;97568.49;109504;1252;75181;-59
2023/12/24 10:58:51;;;;;;;;;;;;;;;5.01;59.47;97577.73;109478;1252;67299;-60
2023/12/24 11:01:18;;;;;;;;;;;;;;;4.77;60.62;97575.50;109387;1252;72742;-61
2023/12/24 11:03:49;;;;;;;;;;;;;;;5.15;59.24;97580.41;109439;1253;59686;-59
2023/12/24 11:06:35;;;;;;;;;;;;;;;4.89;60.04;97582.69;109454;1253;59050;-59
2023/12/24 11:09:08;;;;;;;;;;;;;;;4.90;60.59;97584.77;109448;1253;74655;-60
2023/12/24 11:11:51;;;;;;;;;;;;;;;4.88;60.57;97580.09;109600;1253;67529;-60
2023/12/24 11:14:37;;;;;;;;;;;;;;;5.08;59.88;97591.15;109570;1253;72738;-60
2023/12/24 11:17:06;;;;;;;;;;;;;;;5.12;59.68;97589.67;109532;1253;59616;-58
2023/12/24 11:19:35;;;;;;;;;;;;;;;5.07;59.48;97592.27;109589;1253;59021;-59
2023/12/24 11:22:07;;;;;;;;;;;;;;;5.14;59.72;97594.45;109600;1253;74621;-59
2023/12/24 11:24:41;;;;;;;;;;;;;;;5.20;59.85;97602.91;109169;1253;67307;-60
2023/12/24 11:27:20;;;;;;;;;;;;;;;5.17;59.90;97602.70;109538;1253;71907;-61
2023/12/24 11:29:48;;;;;;;;;;;;;;;4.91;60.89;97604.22;109461;1252;60973;-58
2023/12/24 11:32:26;;;;;;;;;;;;;;;5.17;60.44;97619.88;109554;1253;59065;-60
2023/12/24 11:34:58;;;;;;;;;;;;;;;5.19;59.91;97622.02;109529;1252;73457;-59
2023/12/24 11:37:26;;;;;;;;;;;;;;;4.90;60.99;97617.03;109591;1253;68838;-59
2023/12/24 11:40:06;;;;;;;;;;;;;;;4.93;60.94;97614.91;109592;1253;72713;-59
2023/12/24 11:42:50;;;;;;;;;;;;;;;4.88;61.13;97614.37;109533;1253;61021;-60
2023/12/24 11:45:20;;;;;;;;;;;;;;;4.97;60.97;97612.42;109523;1252;58869;-59
2023/12/24 11:47:48;;;;;;;;;;;;;;;5.12;60.99;97625.35;109578;1253;74686;-59
2023/12/24 11:50:15;;;;;;;;;;;;;;;5.11;60.63;97623.64;108662;1252;1002907;-59
2023/12/24 11:52:43;;;;;;;;;;;;;;;4.79;62.05;97624.58;109411;1253;72771;-59
2023/12/24 11:55:11;;;;;;;;;;;;;;;4.83;62.26;97632.92;109177;1254;60469;-60
2023/12/24 11:57:39;;;;;;;;;;;;;;;4.84;62.36;97638.40;109421;1253;58985;-59
2023/12/24 12:00:11;;;;;;;;;;;;;;;5.10;61.30;97635.72;109326;1256;74694;-59
2023/12/24 12:02:42;;;;;;;;;;;;;;;4.79;62.33;97647.38;109170;1255;67686;-59
2023/12/24 12:05:09;;;;;;;;;;;;;;;4.89;62.27;97657.55;109142;1255;72914;-59
2023/12/24 12:07:37;;;;;;;;;;;;;;;4.99;61.97;97657.03;109102;1256;60962;-58
2023/12/24 12:10:05;;;;;;;;;;;;;;;4.74;62.65;97663.09;109022;1256;60087;-58
2023/12/24 12:12:32;;;;;;;;;;;;;;;4.72;63.42;97668.20;109149;1256;74716;-58
2023/12/24 12:15:00;;;;;;;;;;;;;;;4.80;63.03;97668.01;108952;1256;67602;-59
2023/12/24 12:17:27;;;;;;;;;;;;;;;4.90;62.62;97671.48;109166;1256;71478;-58
2023/12/24 12:19:55;;;;;;;;;;;;;;;4.89;63.18;97677.55;109099;1257;60123;-59
2023/12/24 12:22:22;;;;;;;;;;;;;;;4.73;64.18;97673.73;109092;1255;59903;-58
2023/12/24 12:24:50;;;;;;;;;;;;;;;4.66;64.24;97677.91;109163;1256;74715;-58
2023/12/24 12:27:17;;;;;;;;;;;;;;;4.62;64.19;97672.16;109194;1256;68833;-59
2023/12/24 12:29:45;;;;;;;;;;;;;;;4.78;63.94;97685.48;109203;1256;71473;-60
2023/12/24 12:32:12;;;;;;;;;;;;;;;4.83;63.63;97685.13;109373;1253;60963;-59
2023/12/24 12:34:41;;;;;;;;;;;;;;;4.75;63.75;97683.52;109621;1252;59023;-59
2023/12/24 12:37:08;;;;;;;;;;;;;;;4.80;63.86;97691.87;109609;1253;74713;-59
2023/12/24 12:39:36;;;;;;;;;;;;;;;5.02;63.10;97697.25;109565;1253;67702;-59
2023/12/24 12:42:04;;;;;;;;;;;;;;;4.93;62.61;97698.61;109596;1252;71426;-58
2023/12/24 12:44:32;;;;;;;;;;;;;;;4.73;63.31;97697.02;109049;1253;59688;-60
2023/12/24 12:47:01;;;;;;;;;;;;;;;4.84;62.94;97705.50;109171;1253;59849;-60
2023/12/24 12:49:28;;;;;;;;;;;;;;;4.98;62.09;97712.34;108709;1253;1002309;-59